sensor_id;sensor_type;location;lat;lon;timestamp;P1;durP1;ratioP1;P2;durP2;ratioP2
17214;SDS011;8723;51.502;6.918;2023-12-20T00:00:20;45.83;;;32.72;;
17214;SDS011;8723;51.502;6.918;2023-12-20T00:02:47;52.85;;;33.60;;
17214;SDS011;8723;51.502;6.918;2023-12-20T00:05:17;45.65;;;29.08;;
17214;SDS011;8723;51.502;6.918;2023-12-20T00:07:45;44.17;;;29.08;;
17214;SDS011;8723;51.502;6.918;2023-12-20T00:10:15;40.45;;;27.38;;
17214;SDS011;8723;51.502;6.918;2023-12-20T00:12:42;39.38;;;26.73;;
17214;SDS011;8723;51.502;6.918;2023-12-20T00:15:11;34.03;;;23.73;;
17214;SDS011;8723;51.502;6.918;2023-12-20T00:17:37;62.13;;;31.13;;
17214;SDS011;8723;51.502;6.918;2023-12-20T00:20:05;38.23;;;25.40;;
17214;SDS011;8723;51.502;6.918;2023-12-20T00:22:32;37.75;;;24.58;;
17214;SDS011;8723;51.502;6.918;2023-12-20T00:24:59;41.05;;;24.30;;
17214;SDS011;8723;51.502;6.918;2023-12-20T00:27:26;43.95;;;25.83;;
17214;SDS011;8723;51.502;6.918;2023-12-20T00:29:53;40.75;;;24.83;;
17214;SDS011;8723;51.502;6.918;2023-12-20T00:32:21;39.92;;;24.83;;
17214;SDS011;8723;51.502;6.918;2023-12-20T00:34:51;46.75;;;25.92;;
17214;SDS011;8723;51.502;6.918;2023-12-20T00:37:18;45.45;;;25.38;;
17214;SDS011;8723;51.502;6.918;2023-12-20T00:39:45;37.97;;;22.83;;
17214;SDS011;8723;51.502;6.918;2023-12-20T00:42:11;42.75;;;24.75;;
17214;SDS011;8723;51.502;6.918;2023-12-20T00:44:38;42.50;;;24.10;;
17214;SDS011;8723;51.502;6.918;2023-12-20T00:47:05;47.42;;;25.70;;
17214;SDS011;8723;51.502;6.918;2023-12-20T00:49:33;45.20;;;24.48;;
17214;SDS011;8723;51.502;6.918;2023-12-20T00:52:00;50.17;;;26.13;;
17214;SDS011;8723;51.502;6.918;2023-12-20T00:54:27;44.93;;;25.60;;
17214;SDS011;8723;51.502;6.918;2023-12-20T00:56:55;47.67;;;23.08;;
17214;SDS011;8723;51.502;6.918;2023-12-20T00:59:22;39.25;;;21.73;;
17214;SDS011;8723;51.502;6.918;2023-12-20T01:01:49;41.88;;;21.23;;
17214;SDS011;8723;51.502;6.918;2023-12-20T01:04:16;37.03;;;19.85;;
17214;SDS011;8723;51.502;6.918;2023-12-20T01:06:45;39.10;;;21.48;;
17214;SDS011;8723;51.502;6.918;2023-12-20T01:09:11;34.78;;;20.23;;
17214;SDS011;8723;51.502;6.918;2023-12-20T01:11:39;37.47;;;21.15;;
17214;SDS011;8723;51.502;6.918;2023-12-20T01:14:06;36.53;;;20.70;;
17214;SDS011;8723;51.502;6.918;2023-12-20T01:16:33;36.73;;;21.57;;
17214;SDS011;8723;51.502;6.918;2023-12-20T01:19:00;41.67;;;22.92;;
17214;SDS011;8723;51.502;6.918;2023-12-20T01:21:27;37.50;;;20.50;;
17214;SDS011;8723;51.502;6.918;2023-12-20T01:23:55;41.97;;;20.55;;
17214;SDS011;8723;51.502;6.918;2023-12-20T01:26:22;38.25;;;19.77;;
17214;SDS011;8723;51.502;6.918;2023-12-20T01:28:49;35.15;;;19.17;;
17214;SDS011;8723;51.502;6.918;2023-12-20T01:31:16;38.55;;;18.98;;
17214;SDS011;8723;51.502;6.918;2023-12-20T01:33:46;34.08;;;18.25;;
17214;SDS011;8723;51.502;6.918;2023-12-20T01:36:13;34.47;;;17.80;;
17214;SDS011;8723;51.502;6.918;2023-12-20T01:38:40;36.60;;;19.25;;
17214;SDS011;8723;51.502;6.918;2023-12-20T01:41:08;37.40;;;18.98;;
17214;SDS011;8723;51.502;6.918;2023-12-20T01:43:35;34.33;;;18.98;;
17214;SDS011;8723;51.502;6.918;2023-12-20T01:46:02;31.70;;;17.83;;
17214;SDS011;8723;51.502;6.918;2023-12-20T01:48:29;32.78;;;19.20;;
17214;SDS011;8723;51.502;6.918;2023-12-20T01:50:59;45.97;;;22.23;;
17214;SDS011;8723;51.502;6.918;2023-12-20T01:53:28;37.97;;;19.85;;
17214;SDS011;8723;51.502;6.918;2023-12-20T01:55:55;28.77;;;18.42;;
17214;SDS011;8723;51.502;6.918;2023-12-20T01:58:25;39.40;;;21.13;;
17214;SDS011;8723;51.502;6.918;2023-12-20T02:00:52;41.83;;;21.55;;
17214;SDS011;8723;51.502;6.918;2023-12-20T02:03:20;44.80;;;22.85;;
17214;SDS011;8723;51.502;6.918;2023-12-20T02:05:47;34.13;;;18.90;;
17214;SDS011;8723;51.502;6.918;2023-12-20T02:08:14;38.37;;;21.20;;
17214;SDS011;8723;51.502;6.918;2023-12-20T02:10:41;37.37;;;20.40;;
17214;SDS011;8723;51.502;6.918;2023-12-20T02:13:08;33.92;;;18.90;;
17214;SDS011;8723;51.502;6.918;2023-12-20T02:15:37;36.70;;;19.17;;
17214;SDS011;8723;51.502;6.918;2023-12-20T02:18:06;40.47;;;19.63;;
17214;SDS011;8723;51.502;6.918;2023-12-20T02:20:33;41.30;;;20.80;;
17214;SDS011;8723;51.502;6.918;2023-12-20T02:23:02;47.30;;;22.98;;
17214;SDS011;8723;51.502;6.918;2023-12-20T02:25:29;43.15;;;22.40;;
17214;SDS011;8723;51.502;6.918;2023-12-20T02:27:56;36.85;;;23.20;;
17214;SDS011;8723;51.502;6.918;2023-12-20T02:30:22;40.22;;;23.50;;
17214;SDS011;8723;51.502;6.918;2023-12-20T02:32:49;45.47;;;26.33;;
17214;SDS011;8723;51.502;6.918;2023-12-20T02:35:17;41.20;;;23.55;;
17214;SDS011;8723;51.502;6.918;2023-12-20T02:37:44;44.30;;;24.90;;
17214;SDS011;8723;51.502;6.918;2023-12-20T02:40:12;39.97;;;23.50;;
17214;SDS011;8723;51.502;6.918;2023-12-20T02:42:40;62.25;;;28.88;;
17214;SDS011;8723;51.502;6.918;2023-12-20T02:45:09;44.40;;;25.05;;
17214;SDS011;8723;51.502;6.918;2023-12-20T02:47:37;50.05;;;27.15;;
17214;SDS011;8723;51.502;6.918;2023-12-20T02:50:07;49.72;;;26.35;;
17214;SDS011;8723;51.502;6.918;2023-12-20T02:52:37;53.25;;;26.60;;
17214;SDS011;8723;51.502;6.918;2023-12-20T02:55:08;55.78;;;28.83;;
17214;SDS011;8723;51.502;6.918;2023-12-20T02:57:43;49.95;;;27.00;;
17214;SDS011;8723;51.502;6.918;2023-12-20T03:00:14;52.78;;;28.40;;
17214;SDS011;8723;51.502;6.918;2023-12-20T03:02:45;46.23;;;27.27;;
17214;SDS011;8723;51.502;6.918;2023-12-20T03:05:15;65.70;;;32.30;;
17214;SDS011;8723;51.502;6.918;2023-12-20T03:07:43;56.85;;;30.02;;
17214;SDS011;8723;51.502;6.918;2023-12-20T03:10:15;55.87;;;29.73;;
17214;SDS011;8723;51.502;6.918;2023-12-20T03:12:45;40.42;;;25.50;;
17214;SDS011;8723;51.502;6.918;2023-12-20T03:15:14;50.25;;;26.67;;
17214;SDS011;8723;51.502;6.918;2023-12-20T03:17:44;56.00;;;26.27;;
17214;SDS011;8723;51.502;6.918;2023-12-20T03:20:13;47.63;;;24.38;;
17214;SDS011;8723;51.502;6.918;2023-12-20T03:22:43;48.38;;;23.85;;
17214;SDS011;8723;51.502;6.918;2023-12-20T03:25:13;45.88;;;21.20;;
17214;SDS011;8723;51.502;6.918;2023-12-20T03:27:46;42.95;;;21.10;;
17214;SDS011;8723;51.502;6.918;2023-12-20T03:30:16;47.53;;;19.83;;
17214;SDS011;8723;51.502;6.918;2023-12-20T03:32:47;46.13;;;20.15;;
17214;SDS011;8723;51.502;6.918;2023-12-20T03:35:17;34.15;;;16.98;;
17214;SDS011;8723;51.502;6.918;2023-12-20T03:37:48;35.45;;;16.92;;
17214;SDS011;8723;51.502;6.918;2023-12-20T03:40:20;34.08;;;16.33;;
17214;SDS011;8723;51.502;6.918;2023-12-20T03:42:50;40.55;;;16.48;;
17214;SDS011;8723;51.502;6.918;2023-12-20T03:45:20;38.13;;;15.88;;
17214;SDS011;8723;51.502;6.918;2023-12-20T03:47:51;40.03;;;16.10;;
17214;SDS011;8723;51.502;6.918;2023-12-20T03:50:22;35.85;;;14.60;;
17214;SDS011;8723;51.502;6.918;2023-12-20T03:52:51;29.75;;;14.27;;
17214;SDS011;8723;51.502;6.918;2023-12-20T03:55:23;43.27;;;15.97;;
17214;SDS011;8723;51.502;6.918;2023-12-20T03:57:51;39.95;;;15.73;;
17214;SDS011;8723;51.502;6.918;2023-12-20T04:00:20;39.13;;;15.63;;
17214;SDS011;8723;51.502;6.918;2023-12-20T04:02:47;39.28;;;14.95;;
17214;SDS011;8723;51.502;6.918;2023-12-20T04:05:16;33.67;;;15.07;;
17214;SDS011;8723;51.502;6.918;2023-12-20T04:07:45;39.20;;;15.00;;
17214;SDS011;8723;51.502;6.918;2023-12-20T04:10:15;33.65;;;14.93;;
17214;SDS011;8723;51.502;6.918;2023-12-20T04:12:46;38.23;;;15.37;;
17214;SDS011;8723;51.502;6.918;2023-12-20T04:15:16;38.10;;;14.45;;
17214;SDS011;8723;51.502;6.918;2023-12-20T04:17:43;32.95;;;14.40;;
17214;SDS011;8723;51.502;6.918;2023-12-20T04:20:10;35.88;;;14.23;;
17214;SDS011;8723;51.502;6.918;2023-12-20T04:22:37;30.45;;;13.25;;
17214;SDS011;8723;51.502;6.918;2023-12-20T04:25:04;32.72;;;12.93;;
17214;SDS011;8723;51.502;6.918;2023-12-20T04:27:31;34.60;;;13.30;;
17214;SDS011;8723;51.502;6.918;2023-12-20T04:29:59;34.53;;;13.10;;
17214;SDS011;8723;51.502;6.918;2023-12-20T04:32:26;32.67;;;13.10;;
17214;SDS011;8723;51.502;6.918;2023-12-20T04:34:53;33.13;;;12.30;;
17214;SDS011;8723;51.502;6.918;2023-12-20T04:37:19;34.87;;;13.00;;
17214;SDS011;8723;51.502;6.918;2023-12-20T04:39:46;27.27;;;11.80;;
17214;SDS011;8723;51.502;6.918;2023-12-20T04:42:13;22.23;;;11.45;;
17214;SDS011;8723;51.502;6.918;2023-12-20T04:44:40;38.90;;;17.23;;
17214;SDS011;8723;51.502;6.918;2023-12-20T04:47:10;39.67;;;17.77;;
17214;SDS011;8723;51.502;6.918;2023-12-20T04:49:37;34.33;;;17.92;;
17214;SDS011;8723;51.502;6.918;2023-12-20T04:52:04;43.45;;;20.10;;
17214;SDS011;8723;51.502;6.918;2023-12-20T04:54:31;42.10;;;18.17;;
17214;SDS011;8723;51.502;6.918;2023-12-20T04:56:58;40.72;;;17.98;;
17214;SDS011;8723;51.502;6.918;2023-12-20T04:59:25;34.45;;;17.27;;
17214;SDS011;8723;51.502;6.918;2023-12-20T05:01:52;35.60;;;17.00;;
17214;SDS011;8723;51.502;6.918;2023-12-20T05:04:20;32.83;;;15.85;;
17214;SDS011;8723;51.502;6.918;2023-12-20T05:06:47;36.47;;;17.23;;
17214;SDS011;8723;51.502;6.918;2023-12-20T05:09:14;43.65;;;17.20;;
17214;SDS011;8723;51.502;6.918;2023-12-20T05:11:42;33.60;;;15.88;;
17214;SDS011;8723;51.502;6.918;2023-12-20T05:14:09;39.17;;;17.10;;
17214;SDS011;8723;51.502;6.918;2023-12-20T05:16:36;34.83;;;15.77;;
17214;SDS011;8723;51.502;6.918;2023-12-20T05:19:03;35.72;;;16.10;;
17214;SDS011;8723;51.502;6.918;2023-12-20T05:21:33;37.50;;;17.63;;
17214;SDS011;8723;51.502;6.918;2023-12-20T05:24:01;47.38;;;18.45;;
17214;SDS011;8723;51.502;6.918;2023-12-20T05:26:28;43.33;;;17.90;;
17214;SDS011;8723;51.502;6.918;2023-12-20T05:28:55;37.58;;;17.70;;
17214;SDS011;8723;51.502;6.918;2023-12-20T05:31:22;46.75;;;18.95;;
17214;SDS011;8723;51.502;6.918;2023-12-20T05:33:49;46.65;;;20.58;;
17214;SDS011;8723;51.502;6.918;2023-12-20T05:36:16;41.20;;;18.95;;
17214;SDS011;8723;51.502;6.918;2023-12-20T05:38:44;39.75;;;19.67;;
17214;SDS011;8723;51.502;6.918;2023-12-20T05:41:11;52.08;;;22.60;;
17214;SDS011;8723;51.502;6.918;2023-12-20T05:43:38;47.38;;;21.52;;
17214;SDS011;8723;51.502;6.918;2023-12-20T05:46:05;49.28;;;22.73;;
17214;SDS011;8723;51.502;6.918;2023-12-20T05:48:32;51.77;;;23.83;;
17214;SDS011;8723;51.502;6.918;2023-12-20T05:50:59;50.27;;;24.47;;
17214;SDS011;8723;51.502;6.918;2023-12-20T05:53:26;46.53;;;22.67;;
17214;SDS011;8723;51.502;6.918;2023-12-20T05:55:54;46.53;;;22.90;;
17214;SDS011;8723;51.502;6.918;2023-12-20T05:58:21;49.50;;;23.10;;
17214;SDS011;8723;51.502;6.918;2023-12-20T06:00:48;50.33;;;22.35;;
17214;SDS011;8723;51.502;6.918;2023-12-20T06:03:15;55.53;;;22.90;;
17214;SDS011;8723;51.502;6.918;2023-12-20T06:05:41;48.97;;;22.70;;
17214;SDS011;8723;51.502;6.918;2023-12-20T06:08:08;50.10;;;22.77;;
17214;SDS011;8723;51.502;6.918;2023-12-20T06:10:35;47.87;;;22.00;;
17214;SDS011;8723;51.502;6.918;2023-12-20T06:13:03;49.65;;;22.90;;
17214;SDS011;8723;51.502;6.918;2023-12-20T06:15:31;60.30;;;24.38;;
17214;SDS011;8723;51.502;6.918;2023-12-20T06:17:58;46.13;;;21.40;;
17214;SDS011;8723;51.502;6.918;2023-12-20T06:20:25;43.38;;;21.80;;
17214;SDS011;8723;51.502;6.918;2023-12-20T06:22:52;50.55;;;23.27;;
17214;SDS011;8723;51.502;6.918;2023-12-20T06:25:19;49.97;;;22.33;;
17214;SDS011;8723;51.502;6.918;2023-12-20T06:27:46;48.43;;;22.93;;
17214;SDS011;8723;51.502;6.918;2023-12-20T06:30:15;48.00;;;21.97;;
17214;SDS011;8723;51.502;6.918;2023-12-20T06:32:42;50.25;;;21.88;;
17214;SDS011;8723;51.502;6.918;2023-12-20T06:35:11;48.75;;;21.45;;
17214;SDS011;8723;51.502;6.918;2023-12-20T06:37:38;49.53;;;21.13;;
17214;SDS011;8723;51.502;6.918;2023-12-20T06:40:07;47.63;;;21.63;;
17214;SDS011;8723;51.502;6.918;2023-12-20T06:42:35;44.15;;;20.73;;
17214;SDS011;8723;51.502;6.918;2023-12-20T06:45:03;43.97;;;20.13;;
17214;SDS011;8723;51.502;6.918;2023-12-20T06:47:31;44.38;;;21.05;;
17214;SDS011;8723;51.502;6.918;2023-12-20T06:49:58;47.58;;;21.38;;
17214;SDS011;8723;51.502;6.918;2023-12-20T06:52:25;44.78;;;21.17;;
17214;SDS011;8723;51.502;6.918;2023-12-20T06:54:52;47.25;;;21.52;;
17214;SDS011;8723;51.502;6.918;2023-12-20T06:57:19;43.35;;;22.23;;
17214;SDS011;8723;51.502;6.918;2023-12-20T06:59:46;48.85;;;22.42;;
17214;SDS011;8723;51.502;6.918;2023-12-20T07:02:13;37.08;;;20.42;;
17214;SDS011;8723;51.502;6.918;2023-12-20T07:04:41;50.47;;;22.83;;
17214;SDS011;8723;51.502;6.918;2023-12-20T07:07:08;37.25;;;20.52;;
17214;SDS011;8723;51.502;6.918;2023-12-20T07:09:35;47.22;;;21.70;;
17214;SDS011;8723;51.502;6.918;2023-12-20T07:12:03;41.95;;;19.33;;
17214;SDS011;8723;51.502;6.918;2023-12-20T07:14:29;36.05;;;18.17;;
17214;SDS011;8723;51.502;6.918;2023-12-20T07:16:56;49.90;;;21.13;;
17214;SDS011;8723;51.502;6.918;2023-12-20T07:19:23;45.25;;;20.17;;
17214;SDS011;8723;51.502;6.918;2023-12-20T07:21:51;44.35;;;19.90;;
17214;SDS011;8723;51.502;6.918;2023-12-20T07:24:18;43.65;;;19.52;;
17214;SDS011;8723;51.502;6.918;2023-12-20T07:26:45;40.45;;;18.05;;
17214;SDS011;8723;51.502;6.918;2023-12-20T07:29:12;39.85;;;18.60;;
17214;SDS011;8723;51.502;6.918;2023-12-20T07:31:39;44.67;;;19.13;;
17214;SDS011;8723;51.502;6.918;2023-12-20T07:34:06;44.53;;;18.27;;
17214;SDS011;8723;51.502;6.918;2023-12-20T07:36:33;34.67;;;16.98;;
17214;SDS011;8723;51.502;6.918;2023-12-20T07:39:01;37.78;;;16.73;;
17214;SDS011;8723;51.502;6.918;2023-12-20T07:41:28;29.65;;;15.43;;
17214;SDS011;8723;51.502;6.918;2023-12-20T07:43:55;37.17;;;16.67;;
17214;SDS011;8723;51.502;6.918;2023-12-20T07:46:22;40.40;;;17.38;;
17214;SDS011;8723;51.502;6.918;2023-12-20T07:48:49;39.22;;;17.98;;
17214;SDS011;8723;51.502;6.918;2023-12-20T07:51:16;27.85;;;14.85;;
17214;SDS011;8723;51.502;6.918;2023-12-20T07:53:44;37.23;;;17.17;;
17214;SDS011;8723;51.502;6.918;2023-12-20T07:56:15;27.65;;;15.10;;
17214;SDS011;8723;51.502;6.918;2023-12-20T07:58:42;45.08;;;18.83;;
17214;SDS011;8723;51.502;6.918;2023-12-20T08:01:10;42.45;;;18.50;;
17214;SDS011;8723;51.502;6.918;2023-12-20T08:03:38;40.65;;;17.58;;
17214;SDS011;8723;51.502;6.918;2023-12-20T08:06:05;35.73;;;16.30;;
17214;SDS011;8723;51.502;6.918;2023-12-20T08:08:32;30.15;;;15.30;;
17214;SDS011;8723;51.502;6.918;2023-12-20T08:10:59;35.42;;;16.77;;
17214;SDS011;8723;51.502;6.918;2023-12-20T08:13:27;40.42;;;17.02;;
17214;SDS011;8723;51.502;6.918;2023-12-20T08:15:55;43.58;;;19.23;;
17214;SDS011;8723;51.502;6.918;2023-12-20T08:18:22;38.27;;;17.67;;
17214;SDS011;8723;51.502;6.918;2023-12-20T08:20:49;38.13;;;17.40;;
17214;SDS011;8723;51.502;6.918;2023-12-20T08:23:18;40.70;;;18.33;;
17214;SDS011;8723;51.502;6.918;2023-12-20T08:25:46;42.47;;;18.60;;
17214;SDS011;8723;51.502;6.918;2023-12-20T08:28:13;40.55;;;18.13;;
17214;SDS011;8723;51.502;6.918;2023-12-20T08:30:41;38.95;;;18.08;;
17214;SDS011;8723;51.502;6.918;2023-12-20T08:33:08;40.85;;;17.25;;
17214;SDS011;8723;51.502;6.918;2023-12-20T08:35:37;34.08;;;16.73;;
17214;SDS011;8723;51.502;6.918;2023-12-20T08:38:04;31.58;;;16.10;;
17214;SDS011;8723;51.502;6.918;2023-12-20T08:40:31;35.13;;;17.33;;
17214;SDS011;8723;51.502;6.918;2023-12-20T08:42:58;41.38;;;17.55;;
17214;SDS011;8723;51.502;6.918;2023-12-20T08:45:25;33.35;;;16.48;;
17214;SDS011;8723;51.502;6.918;2023-12-20T08:47:54;39.30;;;16.17;;
17214;SDS011;8723;51.502;6.918;2023-12-20T08:50:20;34.83;;;16.15;;
17214;SDS011;8723;51.502;6.918;2023-12-20T08:52:47;30.38;;;15.52;;
17214;SDS011;8723;51.502;6.918;2023-12-20T08:55:14;34.72;;;15.15;;
17214;SDS011;8723;51.502;6.918;2023-12-20T08:57:43;30.73;;;14.95;;
17214;SDS011;8723;51.502;6.918;2023-12-20T09:00:10;34.45;;;14.57;;
17214;SDS011;8723;51.502;6.918;2023-12-20T09:02:38;34.10;;;14.15;;
17214;SDS011;8723;51.502;6.918;2023-12-20T09:05:06;29.73;;;13.30;;
17214;SDS011;8723;51.502;6.918;2023-12-20T09:07:33;29.67;;;13.13;;
17214;SDS011;8723;51.502;6.918;2023-12-20T09:10:00;27.88;;;12.85;;
17214;SDS011;8723;51.502;6.918;2023-12-20T09:12:27;29.42;;;13.23;;
17214;SDS011;8723;51.502;6.918;2023-12-20T09:14:54;27.13;;;11.77;;
17214;SDS011;8723;51.502;6.918;2023-12-20T09:17:21;32.90;;;13.00;;
17214;SDS011;8723;51.502;6.918;2023-12-20T09:19:48;29.13;;;12.45;;
17214;SDS011;8723;51.502;6.918;2023-12-20T09:22:18;35.30;;;13.82;;
17214;SDS011;8723;51.502;6.918;2023-12-20T09:24:45;32.88;;;12.32;;
17214;SDS011;8723;51.502;6.918;2023-12-20T09:27:12;29.80;;;12.50;;
17214;SDS011;8723;51.502;6.918;2023-12-20T09:29:39;32.83;;;13.30;;
17214;SDS011;8723;51.502;6.918;2023-12-20T09:32:06;33.83;;;13.30;;
17214;SDS011;8723;51.502;6.918;2023-12-20T09:34:33;31.23;;;12.82;;
17214;SDS011;8723;51.502;6.918;2023-12-20T09:37:00;33.10;;;13.50;;
17214;SDS011;8723;51.502;6.918;2023-12-20T09:39:29;26.38;;;12.05;;
17214;SDS011;8723;51.502;6.918;2023-12-20T09:42:00;28.13;;;11.93;;
17214;SDS011;8723;51.502;6.918;2023-12-20T09:44:28;24.60;;;11.60;;
17214;SDS011;8723;51.502;6.918;2023-12-20T09:46:55;29.02;;;11.80;;
17214;SDS011;8723;51.502;6.918;2023-12-20T09:49:23;29.05;;;12.40;;
17214;SDS011;8723;51.502;6.918;2023-12-20T09:51:51;30.15;;;12.35;;
17214;SDS011;8723;51.502;6.918;2023-12-20T09:54:19;25.65;;;11.48;;
17214;SDS011;8723;51.502;6.918;2023-12-20T09:56:48;30.27;;;12.23;;
17214;SDS011;8723;51.502;6.918;2023-12-20T09:59:15;32.83;;;12.10;;
17214;SDS011;8723;51.502;6.918;2023-12-20T10:01:42;26.57;;;11.57;;
17214;SDS011;8723;51.502;6.918;2023-12-20T10:04:10;30.95;;;12.68;;
17214;SDS011;8723;51.502;6.918;2023-12-20T10:06:39;28.00;;;10.88;;
17214;SDS011;8723;51.502;6.918;2023-12-20T10:09:06;26.65;;;11.82;;
17214;SDS011;8723;51.502;6.918;2023-12-20T10:11:34;29.45;;;11.88;;
17214;SDS011;8723;51.502;6.918;2023-12-20T10:14:03;22.25;;;10.77;;
17214;SDS011;8723;51.502;6.918;2023-12-20T10:16:31;33.30;;;12.82;;
17214;SDS011;8723;51.502;6.918;2023-12-20T10:18:58;32.55;;;12.23;;
17214;SDS011;8723;51.502;6.918;2023-12-20T10:21:26;28.52;;;11.35;;
17214;SDS011;8723;51.502;6.918;2023-12-20T10:23:53;30.77;;;11.98;;
17214;SDS011;8723;51.502;6.918;2023-12-20T10:26:21;27.07;;;11.67;;
17214;SDS011;8723;51.502;6.918;2023-12-20T10:28:50;27.73;;;11.05;;
17214;SDS011;8723;51.502;6.918;2023-12-20T10:31:29;26.58;;;10.65;;
17214;SDS011;8723;51.502;6.918;2023-12-20T10:33:57;22.95;;;10.07;;
17214;SDS011;8723;51.502;6.918;2023-12-20T10:36:25;25.57;;;10.93;;
17214;SDS011;8723;51.502;6.918;2023-12-20T10:38:53;31.80;;;11.75;;
17214;SDS011;8723;51.502;6.918;2023-12-20T10:41:23;23.10;;;10.32;;
17214;SDS011;8723;51.502;6.918;2023-12-20T10:43:53;30.05;;;11.32;;
17214;SDS011;8723;51.502;6.918;2023-12-20T10:46:25;24.25;;;10.32;;
17214;SDS011;8723;51.502;6.918;2023-12-20T10:48:54;28.02;;;11.05;;
17214;SDS011;8723;51.502;6.918;2023-12-20T10:51:22;29.08;;;11.65;;
17214;SDS011;8723;51.502;6.918;2023-12-20T10:53:51;23.05;;;10.85;;
17214;SDS011;8723;51.502;6.918;2023-12-20T10:56:19;25.50;;;10.77;;
17214;SDS011;8723;51.502;6.918;2023-12-20T10:58:48;25.40;;;12.00;;
17214;SDS011;8723;51.502;6.918;2023-12-20T11:01:16;26.60;;;11.05;;
17214;SDS011;8723;51.502;6.918;2023-12-20T11:03:48;20.88;;;11.00;;
17214;SDS011;8723;51.502;6.918;2023-12-20T11:06:21;27.70;;;11.97;;
17214;SDS011;8723;51.502;6.918;2023-12-20T11:08:58;27.13;;;11.20;;
17214;SDS011;8723;51.502;6.918;2023-12-20T11:11:35;26.75;;;11.50;;
17214;SDS011;8723;51.502;6.918;2023-12-20T11:14:13;30.67;;;12.18;;
17214;SDS011;8723;51.502;6.918;2023-12-20T11:16:43;26.30;;;11.75;;
17214;SDS011;8723;51.502;6.918;2023-12-20T11:19:11;26.50;;;12.35;;
17214;SDS011;8723;51.502;6.918;2023-12-20T11:21:41;26.00;;;11.43;;
17214;SDS011;8723;51.502;6.918;2023-12-20T11:24:08;24.03;;;11.90;;
17214;SDS011;8723;51.502;6.918;2023-12-20T11:26:36;29.67;;;12.15;;
17214;SDS011;8723;51.502;6.918;2023-12-20T11:31:58;24.90;;;12.27;;
17214;SDS011;8723;51.502;6.918;2023-12-20T11:34:27;24.45;;;10.80;;
17214;SDS011;8723;51.502;6.918;2023-12-20T11:36:59;29.30;;;12.38;;
17214;SDS011;8723;51.502;6.918;2023-12-20T11:39:26;31.73;;;12.48;;
17214;SDS011;8723;51.502;6.918;2023-12-20T11:41:56;24.27;;;11.97;;
17214;SDS011;8723;51.502;6.918;2023-12-20T11:44:25;28.40;;;12.83;;
17214;SDS011;8723;51.502;6.918;2023-12-20T11:46:52;26.95;;;12.30;;
17214;SDS011;8723;51.502;6.918;2023-12-20T11:49:22;15.93;;;10.40;;
17214;SDS011;8723;51.502;6.918;2023-12-20T11:51:50;26.75;;;11.82;;
17214;SDS011;8723;51.502;6.918;2023-12-20T11:54:18;25.95;;;12.30;;
17214;SDS011;8723;51.502;6.918;2023-12-20T11:56:45;22.70;;;11.38;;
17214;SDS011;8723;51.502;6.918;2023-12-20T11:59:13;30.83;;;12.57;;
17214;SDS011;8723;51.502;6.918;2023-12-20T12:01:48;25.45;;;12.95;;
17214;SDS011;8723;51.502;6.918;2023-12-20T12:04:15;24.33;;;13.52;;
17214;SDS011;8723;51.502;6.918;2023-12-20T12:06:43;27.33;;;13.32;;
17214;SDS011;8723;51.502;6.918;2023-12-20T12:09:10;27.52;;;13.05;;
17214;SDS011;8723;51.502;6.918;2023-12-20T12:11:39;25.65;;;15.98;;
17214;SDS011;8723;51.502;6.918;2023-12-20T12:14:06;33.22;;;14.52;;
17214;SDS011;8723;51.502;6.918;2023-12-20T12:16:33;28.50;;;14.30;;
17214;SDS011;8723;51.502;6.918;2023-12-20T12:19:01;28.75;;;14.30;;
17214;SDS011;8723;51.502;6.918;2023-12-20T12:21:29;30.75;;;14.95;;
17214;SDS011;8723;51.502;6.918;2023-12-20T12:24:06;21.73;;;12.43;;
17214;SDS011;8723;51.502;6.918;2023-12-20T12:26:33;24.02;;;12.70;;
17214;SDS011;8723;51.502;6.918;2023-12-20T12:29:01;20.63;;;12.32;;
17214;SDS011;8723;51.502;6.918;2023-12-20T12:31:28;23.70;;;12.80;;
17214;SDS011;8723;51.502;6.918;2023-12-20T12:33:56;34.20;;;14.32;;
17214;SDS011;8723;51.502;6.918;2023-12-20T12:36:23;32.25;;;14.30;;
17214;SDS011;8723;51.502;6.918;2023-12-20T12:38:50;25.60;;;13.20;;
17214;SDS011;8723;51.502;6.918;2023-12-20T12:41:16;28.88;;;13.23;;
17214;SDS011;8723;51.502;6.918;2023-12-20T12:43:43;25.60;;;13.50;;
17214;SDS011;8723;51.502;6.918;2023-12-20T12:46:12;29.80;;;14.00;;
17214;SDS011;8723;51.502;6.918;2023-12-20T12:48:39;30.05;;;13.70;;
17214;SDS011;8723;51.502;6.918;2023-12-20T12:51:06;26.98;;;14.30;;
17214;SDS011;8723;51.502;6.918;2023-12-20T12:53:37;26.02;;;12.43;;
17214;SDS011;8723;51.502;6.918;2023-12-20T12:56:04;23.02;;;12.60;;
17214;SDS011;8723;51.502;6.918;2023-12-20T12:58:31;25.45;;;11.57;;
17214;SDS011;8723;51.502;6.918;2023-12-20T13:00:58;18.60;;;10.40;;
17214;SDS011;8723;51.502;6.918;2023-12-20T13:03:26;29.70;;;12.47;;
17214;SDS011;8723;51.502;6.918;2023-12-20T13:05:53;23.38;;;11.63;;
17214;SDS011;8723;51.502;6.918;2023-12-20T13:08:20;30.17;;;12.82;;
17214;SDS011;8723;51.502;6.918;2023-12-20T13:10:47;28.50;;;13.15;;
17214;SDS011;8723;51.502;6.918;2023-12-20T13:13:14;22.90;;;12.07;;
17214;SDS011;8723;51.502;6.918;2023-12-20T13:15:41;20.83;;;12.45;;
17214;SDS011;8723;51.502;6.918;2023-12-20T13:18:13;29.40;;;14.05;;
17214;SDS011;8723;51.502;6.918;2023-12-20T13:20:41;30.45;;;13.43;;
17214;SDS011;8723;51.502;6.918;2023-12-20T13:23:08;28.42;;;14.38;;
17214;SDS011;8723;51.502;6.918;2023-12-20T13:25:35;30.35;;;14.05;;
17214;SDS011;8723;51.502;6.918;2023-12-20T13:28:02;26.05;;;13.18;;
17214;SDS011;8723;51.502;6.918;2023-12-20T13:30:29;26.80;;;14.50;;
17214;SDS011;8723;51.502;6.918;2023-12-20T13:32:56;30.97;;;16.23;;
17214;SDS011;8723;51.502;6.918;2023-12-20T13:35:23;23.63;;;14.90;;
17214;SDS011;8723;51.502;6.918;2023-12-20T13:37:51;28.38;;;15.45;;
17214;SDS011;8723;51.502;6.918;2023-12-20T13:40:18;24.17;;;15.18;;
17214;SDS011;8723;51.502;6.918;2023-12-20T13:42:45;25.10;;;14.97;;
17214;SDS011;8723;51.502;6.918;2023-12-20T13:45:13;28.35;;;16.80;;
17214;SDS011;8723;51.502;6.918;2023-12-20T13:47:40;28.70;;;16.60;;
17214;SDS011;8723;51.502;6.918;2023-12-20T13:50:07;26.75;;;15.93;;
17214;SDS011;8723;51.502;6.918;2023-12-20T13:52:34;25.95;;;17.10;;
17214;SDS011;8723;51.502;6.918;2023-12-20T13:55:03;27.50;;;16.37;;
17214;SDS011;8723;51.502;6.918;2023-12-20T13:57:32;33.42;;;18.33;;
17214;SDS011;8723;51.502;6.918;2023-12-20T14:00:02;29.75;;;18.40;;
17214;SDS011;8723;51.502;6.918;2023-12-20T14:02:30;27.35;;;17.05;;
17214;SDS011;8723;51.502;6.918;2023-12-20T14:04:57;30.55;;;18.23;;
17214;SDS011;8723;51.502;6.918;2023-12-20T14:07:23;26.52;;;16.83;;
17214;SDS011;8723;51.502;6.918;2023-12-20T14:09:50;30.15;;;17.45;;
17214;SDS011;8723;51.502;6.918;2023-12-20T14:12:19;26.35;;;16.27;;
17214;SDS011;8723;51.502;6.918;2023-12-20T14:14:46;27.98;;;18.38;;
17214;SDS011;8723;51.502;6.918;2023-12-20T14:17:13;28.35;;;16.80;;
17214;SDS011;8723;51.502;6.918;2023-12-20T14:19:40;27.27;;;16.35;;
17214;SDS011;8723;51.502;6.918;2023-12-20T14:22:06;28.67;;;17.52;;
17214;SDS011;8723;51.502;6.918;2023-12-20T14:24:34;25.38;;;17.98;;
17214;SDS011;8723;51.502;6.918;2023-12-20T14:27:02;25.37;;;17.17;;
17214;SDS011;8723;51.502;6.918;2023-12-20T14:29:30;30.85;;;17.98;;
17214;SDS011;8723;51.502;6.918;2023-12-20T14:31:57;18.77;;;15.10;;
17214;SDS011;8723;51.502;6.918;2023-12-20T14:34:26;26.02;;;18.48;;
17214;SDS011;8723;51.502;6.918;2023-12-20T14:36:53;28.40;;;18.35;;
17214;SDS011;8723;51.502;6.918;2023-12-20T14:39:20;31.30;;;18.17;;